createdAt,value
2018-09-09T00:00:32.074Z,72.7589
2018-09-09T00:01:37.225Z,72.5079
2018-09-09T00:02:41.912Z,72.3388
2018-09-09T00:03:47.019Z,72.5079
2018-09-09T00:04:51.893Z,73.2609
2018-09-09T00:05:56.481Z,73.0099
2018-09-09T00:07:01.895Z,72.0878
2018-09-09T00:08:06.492Z,72.5079
2018-09-09T00:09:11.924Z,71.8367
2018-09-09T00:10:17.050Z,72.5079
2018-09-09T00:11:22.239Z,72.3388
2018-09-09T00:12:27.996Z,72.0878
2018-09-09T00:13:32.924Z,73.0099
2018-09-09T00:14:37.920Z,72.0878
2018-09-09T00:15:42.838Z,71.5857
2018-09-09T00:16:47.998Z,71.5857
2018-09-09T00:17:52.298Z,72.0878
2018-09-09T00:18:56.723Z,72.0878
2018-09-09T00:20:01.876Z,71.3347
2018-09-09T00:21:06.788Z,71.5857
2018-09-09T00:22:12.364Z,71.8367
2018-09-09T00:23:17.235Z,71.5857
2018-09-09T00:24:21.534Z,71.5857
2018-09-09T00:25:28.007Z,71.8367
2018-09-09T00:26:33.435Z,72.0878
2018-09-09T00:27:38.141Z,72.0878
2018-09-09T00:28:43.601Z,71.3347
2018-09-09T00:29:49.048Z,72.0878
2018-09-09T00:30:54.922Z,71.5857
2018-09-09T00:32:00.348Z,72.7589
2018-09-09T00:33:05.801Z,71.8367
2018-09-09T00:34:11.504Z,71.8367
2018-09-09T00:35:16.935Z,71.5857
2018-09-09T00:36:22.171Z,72.3388
2018-09-09T00:37:41.934Z,72.7589
2018-09-09T00:38:47.367Z,72.3388
2018-09-09T00:39:53.099Z,73.2609
2018-09-09T00:40:57.967Z,73.2609
2018-09-09T00:42:02.562Z,73.0099
2018-09-09T00:43:07.794Z,72.5079
2018-09-09T00:44:13.233Z,73.5146
2018-09-09T00:45:18.665Z,73.5146
2018-09-09T00:46:24.488Z,73.2609
2018-09-09T00:47:29.639Z,73.5146
2018-09-09T00:48:36.019Z,73.7656
2018-09-09T00:49:41.223Z,73.2609
2018-09-09T00:50:46.447Z,73.5146
2018-09-09T00:51:51.911Z,74.7723
2018-09-09T00:52:56.567Z,73.5146
2018-09-09T00:54:01.984Z,73.5146
2018-09-09T00:55:07.512Z,73.7656
2018-09-09T00:56:12.376Z,75.0234
2018-09-09T00:57:17.813Z,74.2677
2018-09-09T00:58:23.626Z,74.5187
2018-09-09T00:59:29.062Z,75.4409
2018-09-09T01:00:35.006Z,75.0234
2018-09-09T01:01:40.537Z,75.0234
2018-09-09T01:02:45.682Z,74.2677
2018-09-09T01:03:51.548Z,74.2677
2018-09-09T01:04:56.133Z,74.0166
2018-09-09T01:06:01.689Z,74.5187
2018-09-09T01:07:06.901Z,73.5146
2018-09-09T01:08:11.781Z,73.5146
2018-09-09T01:09:17.315Z,74.5187
2018-09-09T01:10:22.989Z,73.5146
2018-09-09T01:11:28.482Z,73.5146
2018-09-09T01:12:34.051Z,73.5146
2018-09-09T01:13:39.312Z,73.5146
2018-09-09T01:14:44.457Z,74.0166
2018-09-09T01:15:50.151Z,73.0099
2018-09-09T01:16:55.293Z,72.7589
2018-09-09T01:18:00.475Z,72.7589
2018-09-09T01:19:05.794Z,73.0099
2018-09-09T01:20:10.669Z,72.7589
2018-09-09T01:21:15.851Z,71.8367
2018-09-09T01:22:20.873Z,72.7589
2018-09-09T01:23:26.306Z,72.7589
2018-09-09T01:24:32.319Z,73.0099
2018-09-09T01:25:37.456Z,73.5146
2018-09-09T01:26:42.331Z,73.2609
2018-09-09T01:27:47.903Z,74.0166
2018-09-09T01:28:53.090Z,74.0166
2018-09-09T01:29:58.240Z,73.5146
2018-09-09T01:31:03.656Z,73.2609
2018-09-09T01:32:08.836Z,74.0166
2018-09-09T01:33:14.312Z,74.2677
2018-09-09T01:34:20.180Z,74.2677
2018-09-09T01:35:25.434Z,73.5146
2018-09-09T01:36:31.147Z,73.7656
2018-09-09T01:37:36.580Z,73.5146
2018-09-09T01:38:42.025Z,73.0099
2018-09-09T01:39:47.523Z,73.0099
2018-09-09T01:40:52.386Z,73.0099
2018-09-09T01:41:57.576Z,72.7589
2018-09-09T01:43:02.819Z,73.5146
2018-09-09T01:44:08.249Z,73.2609
2018-09-09T01:45:13.152Z,73.5146
2018-09-09T01:46:18.721Z,74.2677
2018-09-09T01:47:24.148Z,74.5187
2018-09-09T01:48:29.863Z,74.5187
2018-09-09T01:49:35.424Z,74.2677
2018-09-09T01:50:40.876Z,74.2677
2018-09-09T01:51:46.370Z,74.2677
2018-09-09T01:52:51.274Z,74.5187
2018-09-09T01:53:56.424Z,74.7723
2018-09-09T01:55:02.156Z,75.2744
2018-09-09T01:56:07.050Z,74.2677
2018-09-09T01:57:12.204Z,74.7723
2018-09-09T01:58:17.350Z,73.7656
2018-09-09T01:59:22.782Z,73.7656
2018-09-09T02:00:28.542Z,74.5187
2018-09-09T02:01:33.975Z,74.0166
2018-09-09T02:02:39.425Z,74.2677
2018-09-09T02:03:44.927Z,73.7656
2018-09-09T02:04:49.523Z,74.0166
2018-09-09T02:05:54.307Z,74.2677
2018-09-09T02:06:59.207Z,73.7656
2018-09-09T02:08:03.876Z,72.7589
2018-09-09T02:09:09.342Z,74.2677
2018-09-09T02:10:14.733Z,73.7656
2018-09-09T02:11:20.244Z,74.2677
2018-09-09T02:13:45.450Z,75.0234
2018-09-09T02:14:50.911Z,73.7656
2018-09-09T02:15:56.458Z,73.7656
2018-09-09T02:17:01.344Z,74.5187
2018-09-09T02:18:06.778Z,74.7723
2018-09-09T02:19:12.207Z,74.7723
2018-09-09T02:20:17.664Z,74.2677
2018-09-09T02:21:23.095Z,74.5187
2018-09-09T02:22:28.964Z,73.7656
2018-09-09T02:23:34.146Z,74.0166
2018-09-09T02:24:40.006Z,74.2677
2018-09-09T02:25:45.246Z,73.5146
2018-09-09T02:26:50.581Z,73.7656
2018-09-09T02:27:56.375Z,74.0166
2018-09-09T02:29:01.518Z,73.7656
2018-09-09T02:30:06.948Z,73.0099
2018-09-09T02:31:12.530Z,73.5146
2018-09-09T02:32:17.965Z,73.0099
2018-09-09T02:33:22.856Z,74.5187
2018-09-09T02:34:28.197Z,73.7656
2018-09-09T02:35:33.340Z,73.5146
2018-09-09T02:36:38.885Z,74.7723
2018-09-09T02:37:44.037Z,75.6945
2018-09-09T02:38:49.467Z,74.7723
2018-09-09T02:39:54.918Z,75.0234
2018-09-09T02:40:59.862Z,75.0234
2018-09-09T02:42:05.091Z,75.4409
2018-09-09T02:43:10.501Z,75.2744
2018-09-09T02:44:15.096Z,75.2744
2018-09-09T02:45:19.975Z,75.0234
2018-09-09T02:46:25.525Z,75.2744
2018-09-09T02:47:30.115Z,74.5187
2018-09-09T02:48:35.303Z,75.0234
2018-09-09T02:49:40.850Z,74.7723
2018-09-09T02:50:46.280Z,74.7723
2018-09-09T02:51:51.631Z,75.4409
2018-09-09T02:52:56.869Z,74.2677
2018-09-09T02:54:02.019Z,74.5187
2018-09-09T02:55:07.326Z,74.2677
2018-09-09T02:56:12.780Z,74.0166
2018-09-09T02:57:18.225Z,74.2677
2018-09-09T02:58:23.906Z,74.0166
2018-09-09T02:59:29.392Z,74.5187
2018-09-09T03:00:34.793Z,74.5187
2018-09-09T03:01:39.735Z,74.0166
2018-09-09T03:02:45.165Z,74.2677
2018-09-09T03:03:50.736Z,73.7656
2018-09-09T03:04:55.967Z,73.2609
2018-09-09T03:06:01.184Z,73.7656
2018-09-09T03:07:06.679Z,73.2609
2018-09-09T03:08:11.557Z,73.7656
2018-09-09T03:09:17.049Z,74.7723
2018-09-09T03:10:22.511Z,74.7723
2018-09-09T03:11:27.931Z,74.7723
2018-09-09T03:12:33.595Z,73.2609
2018-09-09T03:13:39.024Z,73.7656
2018-09-09T03:14:44.260Z,73.2609
2018-09-09T03:15:50.092Z,73.7656
2018-09-09T03:16:54.941Z,73.2609
2018-09-09T03:17:59.528Z,74.0166
2018-09-09T03:19:05.389Z,74.5187
2018-09-09T03:20:10.606Z,74.5187
2018-09-09T03:21:15.756Z,73.5146
2018-09-09T03:22:20.645Z,73.5146
2018-09-09T03:23:26.138Z,73.7656
2018-09-09T03:24:31.533Z,74.2677
2018-09-09T03:25:37.007Z,73.5146
2018-09-09T03:26:41.666Z,73.2609
2018-09-09T03:27:47.382Z,74.0166
2018-09-09T03:28:52.609Z,73.2609
2018-09-09T03:29:58.055Z,73.7656
2018-09-09T03:31:03.452Z,73.5146
2018-09-09T03:32:08.666Z,74.0166
2018-09-09T03:33:13.549Z,73.7656
2018-09-09T03:34:18.848Z,73.5146
2018-09-09T03:35:24.306Z,73.7656
2018-09-09T03:36:29.951Z,74.2677
2018-09-09T03:37:35.101Z,74.2677
2018-09-09T03:38:40.355Z,74.0166
2018-09-09T03:39:45.694Z,73.7656
2018-09-09T03:40:50.581Z,74.2677
2018-09-09T03:41:56.009Z,73.7656
2018-09-09T03:43:01.401Z,73.7656
2018-09-09T03:44:06.847Z,73.7656
2018-09-09T03:45:11.773Z,73.7656
2018-09-09T03:46:16.892Z,74.0166
2018-09-09T03:47:22.358Z,74.5187
2018-09-09T03:48:27.647Z,74.0166
2018-09-09T03:49:33.080Z,74.5187
2018-09-09T03:50:38.019Z,74.0166
2018-09-09T03:51:43.286Z,74.5187
2018-09-09T03:52:48.145Z,74.2677
2018-09-09T03:53:53.016Z,74.5187
2018-09-09T03:54:58.711Z,73.7656
2018-09-09T03:56:03.008Z,73.7656
2018-09-09T03:57:08.235Z,74.5187
2018-09-09T03:58:13.687Z,74.2677
2018-09-09T03:59:18.851Z,72.7589
2018-09-09T04:00:24.336Z,73.7656
2018-09-09T04:01:44.201Z,74.0166
2018-09-09T04:02:49.060Z,73.5146
2018-09-09T04:03:54.285Z,73.0099
2018-09-09T04:04:59.750Z,73.7656
2018-09-09T04:06:04.360Z,73.0099
2018-09-09T04:07:10.186Z,74.5187
2018-09-09T04:08:15.049Z,73.7656
2018-09-09T04:09:20.032Z,73.0099
2018-09-09T04:10:25.538Z,73.0099
2018-09-09T04:11:30.136Z,74.0166
2018-09-09T04:12:35.840Z,74.0166
2018-09-09T04:13:41.336Z,73.5146
2018-09-09T04:14:46.775Z,74.0166
2018-09-09T04:15:52.556Z,73.5146
2018-09-09T04:16:58.093Z,74.0166
2018-09-09T04:18:02.968Z,74.0166
2018-09-09T04:19:08.849Z,73.5146
2018-09-09T04:20:14.022Z,74.0166
2018-09-09T04:21:19.159Z,72.7589
2018-09-09T04:22:24.668Z,73.7656
2018-09-09T04:23:29.531Z,73.5146
2018-09-09T04:24:34.915Z,74.0166
2018-09-09T04:25:39.919Z,74.0166
2018-09-09T04:26:45.418Z,73.7656
2018-09-09T04:27:51.243Z,74.0166
2018-09-09T04:28:56.748Z,73.5146
2018-09-09T04:30:01.898Z,74.5187
2018-09-09T04:31:07.576Z,75.0234
2018-09-09T04:32:12.720Z,75.0234
2018-09-09T04:33:17.630Z,74.7723
2018-09-09T04:34:23.102Z,75.0234
2018-09-09T04:35:28.578Z,75.0234
2018-09-09T04:36:33.689Z,74.2677
2018-09-09T04:37:38.567Z,75.2744
2018-09-09T04:38:43.228Z,75.0234
2018-09-09T04:39:49.211Z,75.4409
2018-09-09T04:40:54.669Z,76.1966
2018-09-09T04:42:00.098Z,75.4409
2018-09-09T04:43:05.898Z,76.4476
2018-09-09T04:44:11.334Z,76.6986
2018-09-09T04:45:16.765Z,76.4476
2018-09-09T04:46:22.758Z,76.9523
2018-09-09T04:47:27.712Z,77.2033
2018-09-09T04:48:33.204Z,76.4476
2018-09-09T04:49:38.681Z,76.1966
2018-09-09T04:50:44.136Z,75.4409
2018-09-09T04:51:49.915Z,74.7723
2018-09-09T04:52:54.819Z,73.7656
2018-09-09T04:54:00.267Z,73.7656
2018-09-09T04:55:05.213Z,74.2677
2018-09-09T04:56:10.085Z,74.7723
2018-09-09T04:57:15.235Z,74.0166
2018-09-09T04:58:20.739Z,74.5187
2018-09-09T04:59:25.438Z,74.2677
2018-09-09T05:00:30.537Z,74.5187
2018-09-09T05:01:35.715Z,75.0234
2018-09-09T05:02:40.869Z,74.7723
2018-09-09T05:03:46.543Z,74.2677
2018-09-09T05:04:51.696Z,73.7656
2018-09-09T05:05:56.848Z,74.2677
2018-09-09T05:07:02.017Z,74.2677
2018-09-09T05:08:07.204Z,73.5146
2018-09-09T05:09:12.634Z,73.5146
2018-09-09T05:10:18.033Z,73.5146
2018-09-09T05:11:22.962Z,73.5146
2018-09-09T05:12:28.067Z,73.2609
2018-09-09T05:13:33.213Z,73.0099
2018-09-09T05:14:38.369Z,73.7656
2018-09-09T05:15:44.053Z,72.0878
2018-09-09T05:16:49.208Z,72.0878
2018-09-09T05:17:54.438Z,71.5857
2018-09-09T05:19:00.224Z,72.5898
2018-09-09T05:20:04.577Z,72.0878
2018-09-09T05:21:09.748Z,72.0878
2018-09-09T05:22:14.607Z,71.0837
2018-09-09T05:23:19.782Z,71.0837
2018-09-09T05:25:44.872Z,70.9146
2018-09-09T05:26:50.308Z,71.3347
2018-09-09T05:27:55.989Z,70.4125
2018-09-09T05:29:00.916Z,70.9146
2018-09-09T05:30:06.071Z,70.2434
2018-09-09T05:31:11.031Z,70.2434
2018-09-09T05:32:15.683Z,69.9924
2018-09-09T05:33:20.873Z,70.6635
2018-09-09T05:34:26.714Z,69.7414
2018-09-09T05:35:31.872Z,70.2434
2018-09-09T05:36:37.153Z,70.4125
2018-09-09T05:37:42.638Z,70.2434
2018-09-09T05:38:48.172Z,69.9924
2018-09-09T05:39:53.164Z,70.4125
2018-09-09T05:40:58.415Z,69.9924
2018-09-09T05:42:03.090Z,70.2434
2018-09-09T05:43:08.329Z,70.2434
2018-09-09T05:44:13.525Z,69.7414
2018-09-09T05:45:18.391Z,69.9924
2018-09-09T05:46:23.557Z,70.6635
2018-09-09T05:47:28.421Z,69.7414
2018-09-09T05:48:34.008Z,69.9924
2018-09-09T05:49:39.237Z,69.2393
2018-09-09T05:50:44.697Z,68.9883
2018-09-09T05:51:50.472Z,69.4903
2018-09-09T05:52:55.657Z,68.9883
2018-09-09T05:54:01.224Z,68.9883
2018-09-09T05:55:06.889Z,68.9883
2018-09-09T05:56:12.077Z,69.2393
2018-09-09T05:57:16.940Z,69.4903
2018-09-09T05:58:22.771Z,69.2393
2018-09-09T05:59:27.711Z,68.7373
2018-09-09T06:00:33.596Z,69.2393
2018-09-09T06:01:38.731Z,69.2393
2018-09-09T06:02:43.932Z,69.2393
2018-09-09T06:03:49.759Z,69.4903
2018-09-09T06:04:55.289Z,69.4903
2018-09-09T06:06:00.437Z,69.7414
2018-09-09T06:07:05.548Z,68.7373
2018-09-09T06:08:10.430Z,68.7373
2018-09-09T06:09:15.605Z,69.4903
2018-09-09T06:10:21.008Z,68.9883
2018-09-09T06:11:26.447Z,68.4836
2018-09-09T06:12:32.427Z,68.9883
2018-09-09T06:13:37.304Z,68.2326
2018-09-09T06:14:42.271Z,68.2326
2018-09-09T06:15:47.300Z,68.2326
2018-09-09T06:16:52.511Z,69.2393
2018-09-09T06:17:57.667Z,67.7306
2018-09-09T06:19:02.826Z,68.4836
2018-09-09T06:20:08.007Z,67.9816
2018-09-09T06:21:12.857Z,67.7306
2018-09-09T06:22:18.129Z,67.7306
2018-09-09T06:23:23.563Z,67.0594
2018-09-09T06:24:29.327Z,67.7306
2018-09-09T06:25:34.256Z,67.9816
2018-09-09T06:26:39.405Z,67.4795
2018-09-09T06:27:44.798Z,67.9816
2018-09-09T06:28:50.280Z,68.2326
2018-09-09T06:29:55.721Z,67.9816
2018-09-09T06:31:01.417Z,67.9816
2018-09-09T06:32:06.382Z,67.0594
2018-09-09T06:33:11.535Z,68.2326
2018-09-09T06:34:17.265Z,66.5574
2018-09-09T06:35:22.923Z,67.4795
2018-09-09T06:36:28.417Z,67.9816
2018-09-09T06:37:33.347Z,67.0594
2018-09-09T06:38:38.491Z,67.7306
2018-09-09T06:39:43.909Z,67.4795
2018-09-09T06:40:48.806Z,67.4795
2018-09-09T06:41:54.059Z,67.3104
2018-09-09T06:42:59.287Z,68.2326
2018-09-09T06:44:04.448Z,67.7306
2018-09-09T06:45:09.661Z,68.4836
2018-09-09T06:46:15.099Z,68.4836
2018-09-09T06:47:20.253Z,68.2326
2018-09-09T06:48:40.026Z,68.4836
2018-09-09T06:49:45.528Z,68.7373
2018-09-09T06:50:51.001Z,68.2326
2018-09-09T06:51:56.555Z,67.3104
2018-09-09T06:53:01.705Z,67.9816
2018-09-09T06:54:06.720Z,67.9816
2018-09-09T06:55:12.247Z,67.3104
2018-09-09T06:56:17.684Z,66.8084
2018-09-09T06:57:23.195Z,67.9816
2018-09-09T06:58:28.687Z,67.7306
2018-09-09T06:59:33.562Z,68.2326
2018-09-09T07:00:39.028Z,68.2326
2018-09-09T07:01:44.116Z,68.2326
2018-09-09T07:02:48.992Z,67.4795
2018-09-09T07:03:54.874Z,67.7306
2018-09-09T07:05:00.306Z,67.9816
2018-09-09T07:06:05.471Z,67.7306
2018-09-09T07:07:11.030Z,67.7306
2018-09-09T07:08:15.933Z,67.3104
2018-09-09T07:09:20.516Z,67.7306
2018-09-09T07:10:26.264Z,67.0594
2018-09-09T07:11:32.235Z,67.4795
2018-09-09T07:12:37.929Z,67.0594
2018-09-09T07:13:43.135Z,67.0594
2018-09-09T07:14:48.611Z,67.7306
2018-09-09T07:15:54.245Z,67.3104
2018-09-09T07:16:59.632Z,67.3104
2018-09-09T07:18:04.766Z,66.5574
2018-09-09T07:19:10.106Z,66.8084
2018-09-09T07:20:15.801Z,66.5574
2018-09-09T07:21:20.665Z,66.0553
2018-09-09T07:22:26.058Z,66.8084
2018-09-09T07:23:31.536Z,66.3064
2018-09-09T07:24:37.088Z,66.3064
2018-09-09T07:25:42.585Z,65.5533
2018-09-09T07:26:47.808Z,66.0553
2018-09-09T07:27:53.199Z,65.8043
2018-09-09T07:28:57.801Z,66.3064
2018-09-09T07:30:02.481Z,66.5574
2018-09-09T07:31:08.613Z,65.5533
2018-09-09T07:32:14.108Z,66.0553
2018-09-09T07:33:19.247Z,66.0553
2018-09-09T07:34:24.987Z,65.2996
2018-09-09T07:35:30.201Z,65.2996
2018-09-09T07:36:35.170Z,65.0486
2018-09-09T07:37:40.605Z,65.8043
2018-09-09T07:38:46.085Z,65.5533
2018-09-09T07:39:52.031Z,65.8043
2018-09-09T07:40:56.894Z,65.8043
2018-09-09T07:42:02.121Z,65.5533
2018-09-09T07:43:07.088Z,65.8043
2018-09-09T07:44:12.236Z,65.2996
2018-09-09T07:45:17.186Z,65.0486
2018-09-09T07:46:22.513Z,64.5466
2018-09-09T07:47:27.221Z,64.5466
2018-09-09T07:48:33.148Z,64.7976
2018-09-09T07:49:38.348Z,64.3801
2018-09-09T07:50:44.094Z,65.2996
2018-09-09T07:51:49.864Z,65.5533
2018-09-09T07:52:54.727Z,64.3801
2018-09-09T07:53:59.878Z,64.7976
2018-09-09T07:55:05.614Z,64.3801
2018-09-09T07:56:10.816Z,64.3801
2018-09-09T07:57:15.972Z,64.5466
2018-09-09T07:58:21.091Z,63.8781
2018-09-09T07:59:26.260Z,64.5466
2018-09-09T08:00:32.437Z,64.5466
2018-09-09T08:01:37.370Z,63.8781
2018-09-09T08:02:42.812Z,64.1291
2018-09-09T08:03:48.375Z,64.7976
2018-09-09T08:04:53.525Z,63.8781
2018-09-09T08:05:58.754Z,64.0445
2018-09-09T08:07:04.128Z,64.7976
2018-09-09T08:08:09.283Z,64.0445
2018-09-09T08:09:14.203Z,63.8781
2018-09-09T08:10:20.034Z,64.0445
2018-09-09T08:11:24.903Z,64.5466
2018-09-09T08:12:30.221Z,65.0486
2018-09-09T08:13:35.377Z,64.2956
2018-09-09T08:14:40.847Z,64.2956
2018-09-09T08:15:46.720Z,64.0445
2018-09-09T08:16:51.873Z,63.8781
2018-09-09T08:17:57.391Z,64.2956
2018-09-09T08:19:02.605Z,64.7976
2018-09-09T08:20:07.494Z,64.5466
2018-09-09T08:21:12.371Z,64.0445
2018-09-09T08:22:18.066Z,65.0486
2018-09-09T08:23:22.658Z,64.5466
2018-09-09T08:24:27.771Z,65.0486
2018-09-09T08:25:33.251Z,64.2956
2018-09-09T08:26:38.107Z,64.7976
2018-09-09T08:27:43.586Z,63.3734
2018-09-09T08:28:48.502Z,64.7976
2018-09-09T08:29:53.354Z,64.2956
2018-09-09T08:30:58.470Z,64.5466
2018-09-09T08:32:02.813Z,63.7935
2018-09-09T08:33:07.731Z,63.7935
2018-09-09T08:34:12.853Z,64.2956
2018-09-09T08:35:18.316Z,63.627
2018-09-09T08:36:23.191Z,64.2956
2018-09-09T08:37:28.646Z,63.627
2018-09-09T08:38:33.812Z,63.627
2018-09-09T08:39:39.419Z,63.627
2018-09-09T08:40:44.561Z,63.627
2018-09-09T08:41:49.722Z,63.3734
2018-09-09T08:42:54.597Z,64.0445
2018-09-09T08:43:59.795Z,63.3734
2018-09-09T08:45:04.985Z,63.7935
2018-09-09T08:46:10.754Z,63.7935
2018-09-09T08:47:16.186Z,64.0445
2018-09-09T08:48:21.716Z,63.5425
2018-09-09T08:49:26.711Z,63.1224
2018-09-09T08:50:32.146Z,62.8713
2018-09-09T08:51:37.406Z,63.7935
2018-09-09T08:52:42.568Z,63.3734
2018-09-09T08:53:48.171Z,63.1224
2018-09-09T08:54:53.951Z,62.6203
2018-09-09T08:55:58.833Z,63.5425
2018-09-09T08:57:03.136Z,63.5425
2018-09-09T08:58:08.784Z,63.7935
2018-09-09T08:59:13.966Z,63.5425
2018-09-09T09:00:19.396Z,63.1224
2018-09-09T09:01:24.822Z,63.2915
2018-09-09T09:02:29.973Z,63.7935
2018-09-09T09:03:35.388Z,64.0445
2018-09-09T09:04:40.543Z,63.7935
2018-09-09T09:05:45.975Z,64.0445
2018-09-09T09:06:51.814Z,64.0445
2018-09-09T09:07:57.533Z,64.2956
2018-09-09T09:09:02.323Z,63.2915
2018-09-09T09:10:07.441Z,64.2956
2018-09-09T09:11:12.890Z,64.0445
2018-09-09T09:12:18.045Z,64.5466
2018-09-09T09:13:23.445Z,64.0445
2018-09-09T09:14:28.608Z,64.7976
2018-09-09T09:15:33.809Z,64.5466
2018-09-09T09:16:39.439Z,64.5466
2018-09-09T09:17:44.638Z,64.7976
2018-09-09T09:18:50.196Z,64.0445
2018-09-09T09:19:55.624Z,64.2956
2018-09-09T09:21:01.149Z,65.0486
2018-09-09T09:22:06.428Z,64.7976
2018-09-09T09:23:11.603Z,65.0486
2018-09-09T09:24:16.761Z,65.5533
2018-09-09T09:25:22.459Z,64.5466
2018-09-09T09:26:27.323Z,65.7198
2018-09-09T09:27:32.393Z,65.7198
2018-09-09T09:28:37.643Z,65.2996
2018-09-09T09:29:42.508Z,65.5533
2018-09-09T09:30:48.525Z,65.7198
2018-09-09T09:31:53.845Z,65.7198
2018-09-09T09:32:59.276Z,66.2218
2018-09-09T09:34:04.689Z,67.2285
2018-09-09T09:35:09.838Z,66.4728
2018-09-09T09:36:14.986Z,66.7238
2018-09-09T09:37:20.377Z,66.2218
2018-09-09T09:38:25.557Z,66.7238
2018-09-09T09:39:31.369Z,66.7238
2018-09-09T09:40:36.581Z,66.4728
2018-09-09T09:41:41.470Z,67.4795
2018-09-09T09:42:47.012Z,66.7238
2018-09-09T09:43:52.461Z,66.7238
2018-09-09T09:44:57.515Z,67.2285
2018-09-09T09:46:01.885Z,66.9775
2018-09-09T09:47:06.845Z,67.4795
2018-09-09T09:48:11.825Z,67.7306
2018-09-09T09:49:17.529Z,67.4795
2018-09-09T09:50:22.715Z,67.2285
2018-09-09T09:51:28.391Z,66.7238
2018-09-09T09:52:33.543Z,67.4795
2018-09-09T09:53:39.018Z,66.9775
2018-09-09T09:54:44.996Z,66.4728
2018-09-09T09:55:49.575Z,66.2218
2018-09-09T09:56:54.561Z,65.9708
2018-09-09T09:58:00.382Z,66.9775
2018-09-09T09:59:05.528Z,66.9775
2018-09-09T10:00:11.079Z,66.7238
2018-09-09T10:01:16.056Z,66.4728
2018-09-09T10:02:21.504Z,67.2285
2018-09-09T10:03:27.667Z,65.9708
2018-09-09T10:04:32.957Z,67.2285
2018-09-09T10:05:37.824Z,67.7306
2018-09-09T10:06:43.296Z,66.9775
2018-09-09T10:07:48.441Z,67.2285
2018-09-09T10:08:53.594Z,66.4728
2018-09-09T10:09:59.497Z,66.7238
2018-09-09T10:11:04.653Z,66.4728
2018-09-09T10:12:09.600Z,66.9775
2018-09-09T10:13:15.002Z,67.7306
2018-09-09T10:14:19.878Z,67.2285
2018-09-09T10:15:39.721Z,66.9775
2018-09-09T10:16:44.890Z,67.2285
2018-09-09T10:17:50.365Z,66.7238
2018-09-09T10:18:55.591Z,66.4728
2018-09-09T10:20:01.034Z,66.2218
2018-09-09T10:21:05.046Z,66.9775
2018-09-09T10:22:10.660Z,65.7198
2018-09-09T10:23:15.255Z,67.4795
2018-09-09T10:24:19.854Z,65.9708
2018-09-09T10:25:25.133Z,65.9708
2018-09-09T10:26:29.997Z,66.2218
2018-09-09T10:27:35.497Z,66.7238
2018-09-09T10:28:40.409Z,66.9775
2018-09-09T10:29:45.840Z,66.7238
2018-09-09T10:30:51.240Z,66.4728
2018-09-09T10:31:56.513Z,66.9775
2018-09-09T10:33:01.662Z,66.7238
2018-09-09T10:34:06.495Z,67.897
2018-09-09T10:35:11.673Z,67.7306
2018-09-09T10:36:16.886Z,67.7306
2018-09-09T10:37:22.278Z,67.2285
2018-09-09T10:38:27.704Z,66.7238
2018-09-09T10:39:33.675Z,66.7238
2018-09-09T10:40:38.842Z,66.7238
2018-09-09T10:41:44.271Z,66.2218
2018-09-09T10:42:49.979Z,66.7238
2018-09-09T10:43:54.853Z,66.7238
2018-09-09T10:45:00.343Z,67.4795
2018-09-09T10:46:06.141Z,67.4795
2018-09-09T10:47:12.493Z,67.2285
2018-09-09T10:48:17.550Z,66.9775
2018-09-09T10:49:23.602Z,67.4795
2018-09-09T10:50:29.030Z,66.9775
2018-09-09T10:51:34.843Z,66.9775
2018-09-09T10:52:39.986Z,65.9708
2018-09-09T10:53:44.842Z,66.7238
2018-09-09T10:54:50.541Z,66.7238
2018-09-09T10:55:55.449Z,65.9708
2018-09-09T10:57:00.592Z,66.2218
2018-09-09T10:58:05.781Z,66.9775
2018-09-09T10:59:10.443Z,66.7238
2018-09-09T11:00:15.585Z,66.9775
2018-09-09T11:01:21.102Z,66.7238
2018-09-09T11:02:25.687Z,66.4728
2018-09-09T11:03:31.482Z,66.4728
2018-09-09T11:04:36.360Z,66.9775
2018-09-09T11:05:40.961Z,65.7198
2018-09-09T11:06:46.830Z,66.4728
2018-09-09T11:07:52.289Z,66.7238
2018-09-09T11:08:57.458Z,66.7238
2018-09-09T11:10:02.936Z,66.9775
2018-09-09T11:11:07.811Z,66.2218
2018-09-09T11:12:13.289Z,66.2218
2018-09-09T11:13:18.857Z,66.4728
2018-09-09T11:14:23.723Z,66.2218
2018-09-09T11:15:29.285Z,66.7238
2018-09-09T11:16:34.429Z,66.4728
2018-09-09T11:17:39.293Z,66.4728
2018-09-09T11:18:44.703Z,66.9775
2018-09-09T11:19:49.858Z,66.4728
2018-09-09T11:20:55.290Z,65.7198
2018-09-09T11:22:01.018Z,65.7198
2018-09-09T11:23:06.178Z,66.2218
2018-09-09T11:24:11.848Z,66.7238
2018-09-09T11:25:17.677Z,66.2218
2018-09-09T11:26:23.140Z,66.2218
2018-09-09T11:27:28.423Z,65.9708
2018-09-09T11:28:33.943Z,66.9775
2018-09-09T11:29:38.234Z,66.2218
2018-09-09T11:30:43.984Z,65.4687
2018-09-09T11:31:48.880Z,66.2218
2018-09-09T11:32:53.768Z,66.9775
2018-09-09T11:33:58.920Z,66.2218
2018-09-09T11:35:03.275Z,65.9708
2018-09-09T11:36:08.213Z,66.4728
2018-09-09T11:37:14.210Z,66.4728
2018-09-09T11:38:19.664Z,65.9708
2018-09-09T11:39:24.541Z,66.9775
2018-09-09T11:40:44.565Z,66.2218
2018-09-09T11:41:50.194Z,66.2218
2018-09-09T11:42:55.362Z,66.2218
2018-09-09T11:44:00.284Z,66.4728
2018-09-09T11:45:05.728Z,65.7198
2018-09-09T11:46:10.720Z,65.7198
2018-09-09T11:47:15.674Z,65.9708
2018-09-09T11:48:20.838Z,66.2218
2018-09-09T11:49:25.728Z,65.7198
2018-09-09T11:50:30.972Z,66.2218
2018-09-09T11:51:36.526Z,65.4687
2018-09-09T11:52:41.966Z,65.7198
2018-09-09T11:53:47.421Z,65.7198
2018-09-09T11:54:52.708Z,66.2218
2018-09-09T11:55:58.137Z,65.9708
2018-09-09T11:57:03.140Z,65.7198
2018-09-09T11:58:08.923Z,65.9708
2018-09-09T11:59:14.154Z,64.7157
2018-09-09T12:00:19.405Z,65.2177
2018-09-09T12:01:24.832Z,65.2177
2018-09-09T12:02:29.736Z,65.2177
2018-09-09T12:03:35.586Z,65.7198
2018-09-09T12:04:40.765Z,64.7157
2018-09-09T12:05:46.201Z,65.4687
2018-09-09T12:06:51.924Z,65.7198
2018-09-09T12:07:57.354Z,64.9667
2018-09-09T12:09:02.274Z,65.2177
2018-09-09T12:10:07.012Z,64.9667
2018-09-09T12:11:12.447Z,65.2177
2018-09-09T12:12:17.525Z,65.4687
2018-09-09T12:13:22.353Z,65.2177
2018-09-09T12:14:27.267Z,66.2218
2018-09-09T12:15:32.585Z,65.2177
2018-09-09T12:16:37.739Z,65.2177
2018-09-09T12:17:43.171Z,66.4728
2018-09-09T12:18:48.675Z,65.4687
2018-09-09T12:19:53.540Z,65.7198
2018-09-09T12:20:58.973Z,65.9708
2018-09-09T12:22:04.510Z,65.4687
2018-09-09T12:23:09.676Z,65.9708
2018-09-09T12:24:14.559Z,64.9667
2018-09-09T12:25:20.189Z,64.7157
2018-09-09T12:26:25.336Z,64.7157
2018-09-09T12:27:31.019Z,64.7157
2018-09-09T12:28:36.530Z,65.9708
2018-09-09T12:29:41.449Z,65.7198
2018-09-09T12:30:46.588Z,65.9708
2018-09-09T12:31:51.804Z,64.9667
2018-09-09T12:32:56.976Z,65.2177
2018-09-09T12:34:02.805Z,65.9708
2018-09-09T12:35:07.736Z,65.9708
2018-09-09T12:36:13.167Z,66.2218
2018-09-09T12:37:18.579Z,64.9667
2018-09-09T12:38:23.817Z,65.9708
2018-09-09T12:39:29.669Z,65.9708
2018-09-09T12:40:34.995Z,65.4687
2018-09-09T12:41:40.148Z,65.7198
2018-09-09T12:42:46.031Z,66.4728
2018-09-09T12:43:50.923Z,65.9708
2018-09-09T12:44:56.409Z,66.6419
2018-09-09T12:46:01.876Z,66.3909
2018-09-09T12:47:07.231Z,66.6419
2018-09-09T12:48:11.918Z,66.893
2018-09-09T12:49:16.461Z,67.144
2018-09-09T12:50:21.628Z,66.3909
2018-09-09T12:51:41.783Z,66.893
2018-09-09T12:52:46.420Z,67.646
2018-09-09T12:53:51.298Z,66.893
2018-09-09T12:54:56.591Z,67.897
2018-09-09T12:56:01.543Z,67.144
2018-09-09T12:57:06.692Z,67.646
2018-09-09T12:58:12.420Z,66.3909
2018-09-09T12:59:17.647Z,68.1507
2018-09-09T13:00:23.190Z,66.893
2018-09-09T13:01:28.486Z,67.144
2018-09-09T13:02:33.647Z,67.646
2018-09-09T13:03:39.476Z,67.646
2018-09-09T13:04:43.835Z,67.144
2018-09-09T13:05:49.291Z,67.897
2018-09-09T13:06:54.407Z,68.1507
2018-09-09T13:07:59.558Z,67.144
2018-09-09T13:09:04.990Z,67.897
2018-09-09T13:10:10.640Z,67.646
2018-09-09T13:11:15.288Z,67.395
2018-09-09T13:12:20.483Z,67.646
2018-09-09T13:13:26.161Z,67.646
2018-09-09T13:14:31.594Z,67.395